122-й км

Карта отелей и гостиниц, располагающихся рядом с аэропортом 122-й км :

122-й км Ханты-Мансийский автономный округ - Югра 62° 56' 11.6412" N, 62° 1' 25.32" E
122-й км Ханты-Мансийский автономный округ - Югра 62° 56' 11.6412" N, 62° 1' 25.32" E
Код аэродрома ИКАО
HB39
Код аэродрома RU
ХБ39
Координаты
N62.93657° E062.02370°
Превышение над уровнем моря
60
Основная полоса
34/16
Курс магнитный
340,4/160,4
Длина основной ВПП
24
Ширина основной ВПП
24
Покрытие основной ВПП
Твёрдое
Освещение ВПП
Нет
Тип: 
Вертодром
Класс аэродрома: 
Принадлежность: 
ГА
Статус: 
Действующий
Сайт: 
E-mail аэродрома: 
Страна: 
Россия
Регион: 
Ханты-Мансийский автономный округ - Югра
Город: 
Дополнительная информация: 
Оператор: нет данных.

Найти трансфер

С помощью этой формы Вы можете найти трансфер из аэропорта 122-й км в город, аэропорт или вокзал:

Карта места

Javascript is required to view this map.

Погода в аэропортах:

Авиационная погода в Одессе

Регион: 
Погода METAR: 
UKOO 251830Z 22010MPS 9999 -RA OVC008 06/06 Q0996 R16/290052 NOSIG
Время наблюдения
2021-01-25T18:30:00Z
Температура C
6.0
Точка росы
6.0
Направление ветра
220
Скорость ветра (узлы)
19
Метео видимость
6.21
Явления погоды
-RA
Условия полета
IFR
Аэропорт подробнее: 

Авиационная погода в Архангельске

Регион: 
Погода METAR: 
ULAA 251830Z 19002MPS 160V220 4200 -SHSNRA OVC004CB 01/00 Q1004 R08/590635 NOSIG RMK QBB140 QFE752/1003
Время наблюдения
2021-01-25T18:30:00Z
Температура C
1.0
Точка росы
0.0
Направление ветра
190
Скорость ветра (узлы)
4
Метео видимость
2.61
Явления погоды
-SHSN -SHRA
Условия полета
LIFR
Аэропорт подробнее: 

Авиационная погода в Москва - Домодедово

Регион: 
Погода METAR: 
UUDD 251830Z 16007MPS 8000 -DZ OVC007 00/M01 Q1012 R88/290045 NOSIG
Время наблюдения
2021-01-25T18:30:00Z
Температура C
0.0
Точка росы
-1.0
Направление ветра
160
Скорость ветра (узлы)
14
Метео видимость
4.97
Явления погоды
-DZ
Условия полета
IFR
Аэропорт подробнее: 

Авиационная погода в Грозном

Регион: 
Погода METAR: 
URMG 251830Z 10003MPS 0150 R26/0600D FZFG VV001 M01/M02 Q1017 R26/090070 NOSIG RMK QBB050 MT OBSC OBST OBSC QFE748/0998
Время наблюдения
2021-01-25T18:30:00Z
Температура C
-1.0
Точка росы
-2.0
Направление ветра
100
Скорость ветра (узлы)
6
Метео видимость
0.09
Явления погоды
FZFG
Условия полета
LIFR
Аэропорт подробнее: